createdAt,value
2024-01-22T00:01:00.655Z,100.00
2024-01-22T00:03:49.305Z,100.00
2024-01-22T00:06:39.293Z,100.00
2024-01-22T00:09:28.250Z,100.00
2024-01-22T00:12:18.216Z,100.00
2024-01-22T00:15:08.743Z,100.00
2024-01-22T00:17:57.378Z,100.00
2024-01-22T00:20:47.385Z,100.00
2024-01-22T00:23:36.057Z,100.00
2024-01-22T00:26:24.690Z,100.00
2024-01-22T00:29:14.757Z,100.00
2024-01-22T00:32:04.559Z,100.00
2024-01-22T00:34:55.983Z,100.00
2024-01-22T00:37:44.628Z,100.00
2024-01-22T00:40:34.202Z,100.00
2024-01-22T00:43:22.756Z,100.00
2024-01-22T00:46:13.165Z,100.00
2024-01-22T00:49:01.868Z,100.00
2024-01-22T00:51:50.605Z,100.00
2024-01-22T00:54:39.216Z,100.00
2024-01-22T00:57:27.925Z,100.00
2024-01-22T01:00:17.510Z,100.00
2024-01-22T01:03:07.809Z,100.00
2024-01-22T01:05:56.554Z,100.00
2024-01-22T01:11:33.989Z,100.00
2024-01-22T01:14:22.673Z,100.00
2024-01-22T01:17:11.348Z,100.00
2024-01-22T01:20:01.482Z,100.00
2024-01-22T01:22:50.063Z,100.00
2024-01-22T01:25:38.572Z,100.00
2024-01-22T01:28:27.682Z,100.00
2024-01-22T01:31:16.593Z,100.00
2024-01-22T01:34:05.928Z,100.00
2024-01-22T01:36:56.015Z,100.00
2024-01-22T01:39:44.537Z,100.00
2024-01-22T01:42:33.234Z,100.00
2024-01-22T01:45:21.877Z,100.00
2024-01-22T01:48:10.648Z,100.00
2024-01-22T01:50:59.532Z,100.00
2024-01-22T01:53:49.865Z,100.00
2024-01-22T01:56:38.627Z,100.00
2024-01-22T01:59:27.682Z,100.00
2024-01-22T02:02:16.318Z,100.00
2024-01-22T02:05:05.267Z,100.00
2024-01-22T02:07:53.875Z,100.00
2024-01-22T02:10:48.133Z,100.00
2024-01-22T02:13:36.678Z,100.00
2024-01-22T02:16:25.201Z,100.00
2024-01-22T02:19:14.072Z,100.00
2024-01-22T02:22:02.822Z,100.00
2024-01-22T02:24:53.207Z,100.00
2024-01-22T02:27:41.907Z,100.00
2024-01-22T02:30:30.574Z,100.00
2024-01-22T02:33:19.320Z,100.00
2024-01-22T02:36:08.219Z,100.00
2024-01-22T02:38:56.842Z,100.00
2024-01-22T02:41:46.774Z,100.00
2024-01-22T02:44:37.022Z,100.00
2024-01-22T02:47:25.862Z,100.00
2024-01-22T02:50:15.002Z,100.00
2024-01-22T02:53:03.900Z,100.00
2024-01-22T02:55:52.549Z,100.00
2024-01-22T02:58:42.523Z,100.00
2024-01-22T03:01:31.069Z,100.00
2024-01-22T03:04:19.792Z,100.00
2024-01-22T03:07:09.394Z,100.00
2024-01-22T03:09:58.024Z,100.00
2024-01-22T03:12:47.100Z,100.00
2024-01-22T03:15:37.012Z,100.00
2024-01-22T03:18:25.718Z,100.00
2024-01-22T03:21:14.634Z,100.00
2024-01-22T03:24:03.270Z,100.00
2024-01-22T03:26:52.344Z,100.00
2024-01-22T03:29:41.663Z,100.00
2024-01-22T03:32:31.820Z,100.00
2024-01-22T03:35:21.773Z,100.00
2024-01-22T03:38:10.314Z,100.00
2024-01-22T03:40:58.879Z,100.00
2024-01-22T03:43:47.751Z,100.00
2024-01-22T03:46:37.211Z,100.00
2024-01-22T03:49:27.363Z,100.00
2024-01-22T03:52:15.968Z,100.00
2024-01-22T03:55:04.964Z,100.00
2024-01-22T03:57:53.590Z,100.00
2024-01-22T04:00:42.166Z,100.00
2024-01-22T04:03:30.870Z,100.00
2024-01-22T04:06:20.990Z,100.00
2024-01-22T04:09:11.851Z,100.00
2024-01-22T04:12:00.563Z,100.00
2024-01-22T04:14:49.154Z,100.00
2024-01-22T04:17:37.763Z,100.00
2024-01-22T04:20:26.445Z,100.00
2024-01-22T04:23:16.438Z,100.00
2024-01-22T04:26:05.313Z,100.00
2024-01-22T04:28:53.863Z,100.00
2024-01-22T04:31:42.540Z,100.00
2024-01-22T04:34:31.295Z,100.00
2024-01-22T04:37:22.147Z,100.00
2024-01-22T04:40:13.536Z,100.00
2024-01-22T04:43:02.306Z,100.00
2024-01-22T04:45:50.950Z,100.00
2024-01-22T04:48:39.658Z,100.00
2024-01-22T04:51:28.525Z,100.00
2024-01-22T04:54:17.294Z,100.00
2024-01-22T04:57:07.561Z,100.00
2024-01-22T04:59:56.152Z,100.00
2024-01-22T05:02:44.784Z,100.00
2024-01-22T05:05:33.949Z,100.00
2024-01-22T05:08:22.585Z,100.00
2024-01-22T05:11:11.211Z,100.00
2024-01-22T05:14:01.216Z,100.00
2024-01-22T05:16:49.765Z,100.00
2024-01-22T05:19:38.508Z,100.00
2024-01-22T05:22:27.201Z,100.00
2024-01-22T05:25:15.808Z,100.00
2024-01-22T05:28:04.508Z,100.00
2024-01-22T05:30:54.408Z,100.00
2024-01-22T05:33:43.672Z,100.00
2024-01-22T05:36:32.391Z,100.00
2024-01-22T05:39:21.302Z,100.00
2024-01-22T05:42:09.923Z,100.00
2024-01-22T05:44:58.626Z,100.00
2024-01-22T05:47:48.901Z,100.00
2024-01-22T05:50:37.771Z,100.00
2024-01-22T05:53:26.409Z,100.00
2024-01-22T05:56:22.456Z,100.00
2024-01-22T05:59:11.022Z,100.00
2024-01-22T06:01:59.629Z,100.00
2024-01-22T06:04:51.617Z,100.00
2024-01-22T06:07:40.520Z,100.00
2024-01-22T06:10:30.922Z,100.00
2024-01-22T06:13:19.633Z,100.00
2024-01-22T06:16:10.350Z,100.00
2024-01-22T06:19:00.060Z,100.00
2024-01-22T06:21:50.151Z,100.00
2024-01-22T06:24:39.263Z,100.00
2024-01-22T06:27:27.984Z,100.00
2024-01-22T06:30:17.615Z,100.00
2024-01-22T06:33:06.887Z,90.07
2024-01-22T06:35:55.825Z,82.72
2024-01-22T06:38:45.758Z,80.64
2024-01-22T06:41:34.644Z,78.42
2024-01-22T06:44:23.183Z,78.23
2024-01-22T06:47:11.714Z,75.88
2024-01-22T06:50:00.372Z,74.75
2024-01-22T06:52:49.033Z,73.36
2024-01-22T06:55:39.135Z,75.00
2024-01-22T06:58:27.842Z,73.96
2024-01-22T07:01:16.454Z,74.90
2024-01-22T07:04:05.301Z,73.77
2024-01-22T07:06:54.330Z,71.17
2024-01-22T07:09:43.808Z,71.99
2024-01-22T07:12:33.958Z,70.75
2024-01-22T07:15:23.656Z,71.33
2024-01-22T07:18:14.369Z,71.32
2024-01-22T07:21:03.980Z,72.35
2024-01-22T07:23:52.641Z,72.02
2024-01-22T07:26:41.340Z,71.89
2024-01-22T07:29:31.838Z,72.09
2024-01-22T07:32:20.422Z,69.22
2024-01-22T07:35:14.433Z,69.89
2024-01-22T07:38:05.918Z,70.09
2024-01-22T07:40:56.432Z,70.40
2024-01-22T07:43:46.627Z,70.21
2024-01-22T07:46:36.601Z,70.65
2024-01-22T07:49:25.312Z,70.91
2024-01-22T07:52:13.974Z,72.13
2024-01-22T07:55:03.157Z,73.09
2024-01-22T07:57:51.949Z,74.01
2024-01-22T08:00:40.644Z,76.85
2024-01-22T08:03:30.908Z,78.11
2024-01-22T08:06:19.542Z,80.01
2024-01-22T08:09:08.830Z,80.66
2024-01-22T08:11:57.536Z,81.08
2024-01-22T08:14:46.226Z,82.67
2024-01-22T08:17:37.152Z,83.54
2024-01-22T08:20:31.530Z,82.20
2024-01-22T08:23:21.489Z,81.88
2024-01-22T08:26:10.124Z,81.67
2024-01-22T08:28:58.897Z,81.04
2024-01-22T08:31:47.505Z,80.61
2024-01-22T08:34:39.440Z,80.90
2024-01-22T08:37:29.556Z,80.92
2024-01-22T08:40:22.411Z,81.36
2024-01-22T08:43:11.663Z,83.53
2024-01-22T08:46:01.040Z,84.41
2024-01-22T08:48:49.824Z,87.35
2024-01-22T08:51:38.526Z,86.68
2024-01-22T08:54:29.952Z,89.50
2024-01-22T08:57:20.959Z,92.98
2024-01-22T09:00:12.828Z,97.39
2024-01-22T09:03:01.681Z,97.73
2024-01-22T09:05:50.516Z,98.35
2024-01-22T09:08:39.350Z,99.65
2024-01-22T09:11:29.333Z,100.00
2024-01-22T09:14:18.590Z,100.00
2024-01-22T09:17:07.172Z,99.92
2024-01-22T09:19:55.827Z,99.57
2024-01-22T09:22:44.503Z,100.00
2024-01-22T09:25:33.092Z,99.47
2024-01-22T09:28:23.861Z,99.61
2024-01-22T09:31:14.355Z,100.00
2024-01-22T09:34:03.274Z,100.00
2024-01-22T09:36:51.946Z,100.00
2024-01-22T09:39:40.780Z,100.00
2024-01-22T09:42:29.531Z,99.31
2024-01-22T09:45:19.648Z,97.85
2024-01-22T09:48:10.556Z,96.77
2024-01-22T09:50:59.531Z,95.58
2024-01-22T09:53:49.824Z,95.57
2024-01-22T09:56:38.716Z,94.26
2024-01-22T09:59:29.320Z,93.77
2024-01-22T10:02:19.872Z,92.94
2024-01-22T10:05:09.654Z,93.48
2024-01-22T10:07:58.333Z,94.38
2024-01-22T10:10:47.155Z,94.41
2024-01-22T10:13:49.812Z,94.51
2024-01-22T10:16:40.423Z,94.43
2024-01-22T10:19:30.498Z,92.35
2024-01-22T10:22:22.210Z,92.23
2024-01-22T10:25:10.900Z,92.35
2024-01-22T10:28:13.123Z,92.42
2024-01-22T10:31:06.792Z,92.89
2024-01-22T10:34:06.645Z,93.10
2024-01-22T10:37:08.392Z,90.67
2024-01-22T10:40:02.288Z,89.64
2024-01-22T10:42:50.891Z,88.77
2024-01-22T10:45:40.483Z,88.56
2024-01-22T10:48:38.535Z,86.98
2024-01-22T10:51:35.221Z,87.32
2024-01-22T10:54:27.119Z,86.89
2024-01-22T10:57:18.510Z,87.81
2024-01-22T11:00:09.402Z,87.21
2024-01-22T11:02:59.807Z,86.99
2024-01-22T11:05:49.886Z,87.41
2024-01-22T11:08:39.234Z,88.34
2024-01-22T11:11:30.497Z,88.08
2024-01-22T11:14:19.270Z,88.43
2024-01-22T11:17:10.088Z,89.02
2024-01-22T11:20:16.648Z,89.34
2024-01-22T11:23:06.466Z,90.50
2024-01-22T11:26:10.834Z,91.45
2024-01-22T11:29:10.786Z,91.55
2024-01-22T11:31:59.425Z,92.44
2024-01-22T11:34:49.078Z,92.90
2024-01-22T11:37:39.392Z,93.40
2024-01-22T11:40:49.745Z,93.72
2024-01-22T11:43:38.374Z,94.18
2024-01-22T11:46:28.448Z,94.38
2024-01-22T11:49:17.214Z,95.00
2024-01-22T11:52:11.887Z,95.08
2024-01-22T11:55:02.414Z,94.65
2024-01-22T11:57:51.535Z,94.60
2024-01-22T12:00:40.471Z,95.13
2024-01-22T12:03:31.850Z,95.78
2024-01-22T12:06:22.163Z,97.22
2024-01-22T12:09:10.736Z,98.02
2024-01-22T12:12:04.196Z,97.52
2024-01-22T12:14:56.690Z,97.60
2024-01-22T12:17:46.113Z,95.75
2024-01-22T12:20:36.278Z,95.69
2024-01-22T12:23:32.007Z,95.69
2024-01-22T12:26:24.096Z,95.28
2024-01-22T12:29:21.095Z,95.26
2024-01-22T12:32:12.215Z,95.38
2024-01-22T12:35:02.047Z,95.61
2024-01-22T12:37:52.258Z,95.18
2024-01-22T12:40:42.878Z,94.57
2024-01-22T12:43:32.881Z,94.63
2024-01-22T12:46:21.854Z,94.37
2024-01-22T12:49:11.652Z,93.77
2024-01-22T12:52:00.475Z,93.56
2024-01-22T12:54:50.608Z,93.21
2024-01-22T12:57:39.728Z,92.66
2024-01-22T13:00:30.210Z,93.70
2024-01-22T13:03:19.145Z,93.71
2024-01-22T13:06:08.316Z,94.02
2024-01-22T13:08:57.074Z,93.73
2024-01-22T13:11:48.154Z,93.75
2024-01-22T13:14:37.464Z,92.64
2024-01-22T13:17:26.447Z,92.55
2024-01-22T13:20:16.174Z,90.82
2024-01-22T13:23:05.299Z,90.73
2024-01-22T13:25:53.834Z,90.60
2024-01-22T13:28:44.330Z,90.39
2024-01-22T13:31:33.383Z,90.83
2024-01-22T13:34:28.051Z,90.80
2024-01-22T13:37:17.006Z,91.04
2024-01-22T13:40:06.848Z,91.42
2024-01-22T13:42:55.544Z,91.15
2024-01-22T13:45:45.419Z,91.63
2024-01-22T13:48:34.263Z,91.58
2024-01-22T13:51:23.044Z,91.04
2024-01-22T13:54:11.747Z,91.29
2024-01-22T13:57:00.476Z,90.63
2024-01-22T13:59:49.868Z,89.71
2024-01-22T14:02:40.235Z,90.48
2024-01-22T14:05:29.157Z,90.48
2024-01-22T14:08:18.112Z,90.82
2024-01-22T14:11:07.351Z,90.48
2024-01-22T14:13:59.959Z,90.43
2024-01-22T14:16:48.550Z,90.59
2024-01-22T14:19:38.549Z,91.11
2024-01-22T14:22:30.073Z,91.06
2024-01-22T14:25:20.378Z,91.51
2024-01-22T14:28:11.247Z,91.31
2024-01-22T14:31:02.248Z,92.06
2024-01-22T14:33:52.841Z,92.68
2024-01-22T14:36:43.070Z,93.24
2024-01-22T14:39:31.879Z,93.02
2024-01-22T14:42:21.141Z,92.93
2024-01-22T14:45:10.838Z,93.65
2024-01-22T14:47:59.702Z,94.00
2024-01-22T14:50:48.950Z,94.54
2024-01-22T14:53:39.513Z,95.82
2024-01-22T14:56:28.389Z,97.57
2024-01-22T14:59:17.251Z,99.34
2024-01-22T15:02:05.858Z,100.00
2024-01-22T15:04:54.487Z,100.00
2024-01-22T15:07:43.101Z,100.00
2024-01-22T15:10:33.783Z,100.00
2024-01-22T15:13:22.439Z,100.00
2024-01-22T15:16:11.634Z,100.00
2024-01-22T15:19:00.636Z,100.00
2024-01-22T15:21:49.551Z,100.00
2024-01-22T15:24:38.469Z,100.00
2024-01-22T15:27:30.461Z,100.00
2024-01-22T15:30:19.634Z,100.00
2024-01-22T15:33:08.546Z,100.00
2024-01-22T15:35:57.428Z,100.00
2024-01-22T15:38:47.758Z,100.00
2024-01-22T15:41:37.618Z,100.00
2024-01-22T15:44:27.853Z,100.00
2024-01-22T15:47:16.546Z,100.00
2024-01-22T15:50:06.270Z,100.00
2024-01-22T15:52:56.827Z,100.00
2024-01-22T15:55:45.693Z,100.00
2024-01-22T15:58:34.408Z,100.00
2024-01-22T16:01:26.587Z,100.00
2024-01-22T16:04:15.832Z,100.00
2024-01-22T16:07:11.102Z,100.00
2024-01-22T16:10:02.321Z,100.00
2024-01-22T16:12:50.977Z,100.00
2024-01-22T16:15:40.400Z,100.00
2024-01-22T16:18:30.947Z,100.00
2024-01-22T16:21:20.070Z,100.00
2024-01-22T16:24:09.661Z,100.00
2024-01-22T16:26:59.672Z,100.00
2024-01-22T16:29:51.783Z,100.00
2024-01-22T16:32:41.345Z,100.00
2024-01-22T16:35:31.454Z,100.00
2024-01-22T16:38:22.983Z,100.00
2024-01-22T16:41:12.773Z,100.00
2024-01-22T16:44:01.428Z,100.00
2024-01-22T16:46:50.066Z,100.00
2024-01-22T16:49:38.772Z,100.00
2024-01-22T16:52:28.885Z,100.00
2024-01-22T16:55:17.517Z,100.00
2024-01-22T16:58:06.381Z,100.00
2024-01-22T17:00:55.116Z,100.00
2024-01-22T17:03:43.988Z,100.00
2024-01-22T17:06:33.090Z,100.00
2024-01-22T17:09:23.049Z,100.00
2024-01-22T17:12:12.289Z,100.00
2024-01-22T17:15:01.195Z,100.00
2024-01-22T17:17:52.185Z,100.00
2024-01-22T17:20:41.791Z,100.00
2024-01-22T17:23:33.348Z,100.00
2024-01-22T17:26:23.475Z,100.00
2024-01-22T17:29:12.262Z,100.00
2024-01-22T17:32:00.912Z,100.00
2024-01-22T17:34:50.111Z,100.00
2024-01-22T17:37:38.893Z,100.00
2024-01-22T17:40:28.023Z,100.00
2024-01-22T17:43:18.049Z,100.00
2024-01-22T17:46:07.245Z,100.00
2024-01-22T17:48:59.241Z,100.00
2024-01-22T17:51:48.355Z,100.00
2024-01-22T17:54:37.489Z,100.00
2024-01-22T17:57:26.119Z,100.00
2024-01-22T18:00:17.672Z,100.00
2024-01-22T18:03:06.339Z,100.00
2024-01-22T18:05:55.070Z,100.00
2024-01-22T18:08:44.695Z,100.00
2024-01-22T18:11:33.286Z,100.00
2024-01-22T18:14:21.991Z,100.00
2024-01-22T18:17:11.947Z,100.00
2024-01-22T18:20:00.532Z,100.00
2024-01-22T18:22:49.114Z,100.00
2024-01-22T18:25:37.660Z,100.00
2024-01-22T18:28:26.288Z,100.00
2024-01-22T18:31:14.941Z,100.00
2024-01-22T18:34:05.125Z,100.00
2024-01-22T18:36:53.772Z,100.00
2024-01-22T18:39:42.946Z,100.00
2024-01-22T18:42:31.668Z,100.00
2024-01-22T18:45:22.648Z,100.00
2024-01-22T18:48:11.476Z,100.00
2024-01-22T18:51:01.917Z,100.00
2024-01-22T18:53:50.597Z,100.00
2024-01-22T18:56:39.183Z,100.00
2024-01-22T18:59:28.069Z,100.00
2024-01-22T19:02:17.247Z,100.00
2024-01-22T19:05:06.228Z,100.00
2024-01-22T19:07:56.187Z,100.00
2024-01-22T19:10:44.847Z,100.00
2024-01-22T19:13:33.509Z,100.00
2024-01-22T19:16:23.552Z,100.00
2024-01-22T19:19:14.437Z,100.00
2024-01-22T19:22:03.491Z,100.00
2024-01-22T19:24:53.421Z,100.00
2024-01-22T19:27:42.917Z,100.00
2024-01-22T19:30:31.714Z,100.00
2024-01-22T19:33:20.553Z,100.00
2024-01-22T19:36:09.485Z,100.00
2024-01-22T19:38:58.652Z,100.00
2024-01-22T19:41:48.981Z,100.00
2024-01-22T19:44:38.191Z,100.00
2024-01-22T19:47:29.383Z,100.00
2024-01-22T19:50:18.445Z,100.00
2024-01-22T19:53:07.091Z,100.00
2024-01-22T19:55:55.695Z,100.00
2024-01-22T19:58:47.005Z,100.00
2024-01-22T20:01:35.721Z,100.00
2024-01-22T20:04:24.438Z,100.00
2024-01-22T20:07:13.029Z,100.00
2024-01-22T20:10:01.718Z,100.00
2024-01-22T20:12:50.640Z,100.00
2024-01-22T20:15:40.735Z,100.00
2024-01-22T20:18:29.644Z,100.00
2024-01-22T20:21:18.587Z,100.00
2024-01-22T20:24:08.462Z,100.00
2024-01-22T20:26:57.121Z,100.00
2024-01-22T20:29:45.715Z,100.00
2024-01-22T20:32:35.885Z,100.00
2024-01-22T20:35:24.870Z,100.00
2024-01-22T20:38:13.693Z,100.00
2024-01-22T20:41:02.318Z,100.00
2024-01-22T20:43:50.941Z,100.00
2024-01-22T20:46:39.669Z,100.00
2024-01-22T20:49:29.768Z,100.00
2024-01-22T20:52:19.409Z,100.00
2024-01-22T20:55:08.707Z,100.00
2024-01-22T20:57:57.288Z,100.00
2024-01-22T21:00:46.096Z,100.00
2024-01-22T21:03:35.167Z,100.00
2024-01-22T21:06:25.541Z,100.00
2024-01-22T21:09:14.614Z,100.00
2024-01-22T21:12:03.776Z,100.00
2024-01-22T21:14:52.640Z,100.00
2024-01-22T21:17:42.830Z,100.00
2024-01-22T21:20:31.644Z,100.00
2024-01-22T21:23:21.955Z,100.00
2024-01-22T21:26:15.818Z,100.00
2024-01-22T21:29:06.180Z,100.00
2024-01-22T21:31:57.995Z,100.00
2024-01-22T21:34:46.757Z,100.00
2024-01-22T21:37:35.738Z,100.00
2024-01-22T21:40:25.888Z,100.00
2024-01-22T21:43:14.792Z,100.00
2024-01-22T21:46:03.544Z,100.00
2024-01-22T21:48:52.240Z,100.00
2024-01-22T21:51:40.959Z,100.00
2024-01-22T21:54:29.970Z,100.00
2024-01-22T21:57:20.179Z,100.00
2024-01-22T22:00:12.271Z,100.00
2024-01-22T22:03:01.066Z,100.00
2024-01-22T22:05:49.814Z,100.00
2024-01-22T22:08:38.808Z,100.00
2024-01-22T22:11:27.502Z,100.00
2024-01-22T22:14:17.982Z,100.00
2024-01-22T22:17:07.848Z,100.00
2024-01-22T22:19:56.720Z,100.00
2024-01-22T22:22:47.234Z,100.00
2024-01-22T22:25:36.219Z,100.00
2024-01-22T22:28:25.016Z,100.00
2024-01-22T22:31:14.927Z,100.00
2024-01-22T22:34:05.003Z,100.00
2024-01-22T22:36:54.203Z,100.00
2024-01-22T22:39:43.298Z,100.00
2024-01-22T22:42:32.048Z,100.00
2024-01-22T22:45:20.666Z,100.00
2024-01-22T22:48:11.194Z,100.00
2024-01-22T22:50:59.894Z,100.00
2024-01-22T22:53:48.467Z,100.00
2024-01-22T22:56:37.202Z,100.00
2024-01-22T22:59:25.701Z,100.00
2024-01-22T23:02:14.692Z,100.00
2024-01-22T23:05:04.784Z,100.00
2024-01-22T23:07:53.366Z,100.00
2024-01-22T23:10:41.960Z,100.00
2024-01-22T23:13:30.549Z,100.00
2024-01-22T23:16:19.741Z,100.00
2024-01-22T23:19:08.463Z,100.00
2024-01-22T23:21:58.420Z,100.00
2024-01-22T23:24:47.371Z,100.00
2024-01-22T23:27:36.176Z,100.00
2024-01-22T23:30:24.986Z,100.00
2024-01-22T23:33:13.800Z,100.00
2024-01-22T23:36:02.509Z,100.00
2024-01-22T23:38:54.399Z,100.00
2024-01-22T23:41:43.117Z,100.00
2024-01-22T23:44:31.770Z,100.00
2024-01-22T23:47:20.495Z,100.00
2024-01-22T23:50:10.537Z,100.00
2024-01-22T23:52:59.758Z,100.00
2024-01-22T23:55:49.668Z,100.00
2024-01-22T23:58:38.271Z,100.00
